createdAt,value
2023-03-31T00:00:12.789Z,101040.53
2023-03-31T00:02:41.449Z,101041.53
2023-03-31T00:05:09.215Z,101039.44
2023-03-31T00:07:38.061Z,101027.38
2023-03-31T00:10:17.259Z,101022.16
2023-03-31T00:12:44.689Z,101013.41
2023-03-31T00:15:11.317Z,101015.50
2023-03-31T00:17:37.756Z,100995.91
2023-03-31T00:20:05.895Z,101005.81
2023-03-31T00:22:32.301Z,101002.75
2023-03-31T00:24:58.677Z,100990.69
2023-03-31T00:27:25.291Z,100995.94
2023-03-31T00:29:53.015Z,101001.25
2023-03-31T00:32:19.422Z,101002.53
2023-03-31T00:34:46.208Z,100993.19
2023-03-31T00:37:15.951Z,101000.69
2023-03-31T00:39:43.243Z,100990.28
2023-03-31T00:42:12.972Z,100978.81
2023-03-31T00:45:14.920Z,100973.38
2023-03-31T00:47:45.845Z,100976.59
2023-03-31T00:50:20.439Z,100978.03
2023-03-31T00:53:01.255Z,100971.75
2023-03-31T00:55:40.267Z,100976.31
2023-03-31T00:58:07.796Z,100970.50
2023-03-31T01:00:34.409Z,100975.81
2023-03-31T01:03:06.801Z,100961.72
2023-03-31T01:05:44.667Z,100949.19
2023-03-31T01:08:12.229Z,100958.41
2023-03-31T01:10:43.520Z,100953.50
2023-03-31T01:13:11.122Z,100951.75
2023-03-31T01:15:38.816Z,100942.34
2023-03-31T01:18:06.826Z,100925.66
2023-03-31T01:20:36.201Z,100930.56
2023-03-31T01:23:44.809Z,100930.69
2023-03-31T01:26:13.843Z,100932.78
2023-03-31T01:29:02.006Z,100925.72
2023-03-31T01:32:01.000Z,100923.75
2023-03-31T01:34:42.533Z,100929.53
2023-03-31T01:37:42.749Z,100921.81
2023-03-31T01:40:15.337Z,100915.41
2023-03-31T01:43:10.055Z,100900.75
2023-03-31T01:45:44.738Z,100901.66
2023-03-31T01:48:34.029Z,100902.56
2023-03-31T01:51:07.388Z,100898.34
2023-03-31T01:53:44.814Z,100891.66
2023-03-31T01:56:18.782Z,100890.63
2023-03-31T01:59:01.744Z,100897.47
2023-03-31T02:01:37.867Z,100900.53
2023-03-31T02:04:17.220Z,100891.28
2023-03-31T02:06:52.844Z,100886.50
2023-03-31T02:09:27.542Z,100896.34
2023-03-31T02:11:56.973Z,100891.94
2023-03-31T02:14:28.059Z,100894.38
2023-03-31T02:16:58.369Z,100898.94
2023-03-31T02:19:29.503Z,100892.13
2023-03-31T02:21:56.059Z,100902.19
2023-03-31T02:24:26.681Z,100891.44
2023-03-31T02:27:17.676Z,100883.34
2023-03-31T02:29:44.253Z,100878.19
2023-03-31T02:32:25.604Z,100880.72
2023-03-31T02:34:52.007Z,100874.16
2023-03-31T02:37:18.570Z,100856.84
2023-03-31T02:39:48.604Z,100848.38
2023-03-31T02:42:16.075Z,100850.53
2023-03-31T02:44:42.772Z,100863.06
2023-03-31T02:47:15.481Z,100848.38
2023-03-31T02:49:48.063Z,100835.84
2023-03-31T02:52:44.434Z,100851.16
2023-03-31T02:55:48.163Z,100863.19
2023-03-31T02:58:42.156Z,100850.69
2023-03-31T03:01:23.908Z,100841.91
2023-03-31T03:04:09.441Z,100847.34
2023-03-31T03:06:53.489Z,100851.44
2023-03-31T03:09:59.099Z,100840.50
2023-03-31T03:12:56.595Z,100855.31
2023-03-31T03:15:47.420Z,100858.13
2023-03-31T03:18:14.304Z,100845.50
2023-03-31T03:20:48.403Z,100839.31
2023-03-31T03:23:15.749Z,100832.34
2023-03-31T03:25:42.355Z,100831.97
2023-03-31T03:28:08.792Z,100823.06
2023-03-31T03:30:35.283Z,100820.09
2023-03-31T03:33:02.168Z,100816.75
2023-03-31T03:35:29.008Z,100827.06
2023-03-31T03:37:55.533Z,100833.13
2023-03-31T03:40:21.915Z,100834.50
2023-03-31T03:42:48.330Z,100834.66
2023-03-31T03:45:14.725Z,100838.00
2023-03-31T03:47:41.227Z,100845.59
2023-03-31T03:50:08.361Z,100835.53
2023-03-31T03:52:34.861Z,100836.19
2023-03-31T03:55:01.890Z,100843.38
2023-03-31T03:57:28.476Z,100841.44
2023-03-31T03:59:54.910Z,100835.41
2023-03-31T04:02:21.374Z,100839.28
2023-03-31T04:04:47.894Z,100839.56
2023-03-31T04:07:14.366Z,100835.28
2023-03-31T04:09:40.849Z,100839.56
2023-03-31T04:12:07.226Z,100842.38
2023-03-31T04:14:33.675Z,100836.19
2023-03-31T04:17:00.110Z,100836.41
2023-03-31T04:19:27.472Z,100848.66
2023-03-31T04:21:58.915Z,100848.69
2023-03-31T04:24:30.574Z,100842.00
2023-03-31T04:26:57.783Z,100846.34
2023-03-31T04:29:26.515Z,100842.63
2023-03-31T04:31:58.597Z,100836.94
2023-03-31T04:34:34.571Z,100829.34
2023-03-31T04:37:02.765Z,100809.88
2023-03-31T04:39:32.845Z,100809.63
2023-03-31T04:42:00.909Z,100809.88
2023-03-31T04:44:27.744Z,100809.66
2023-03-31T04:46:54.815Z,100798.03
2023-03-31T04:49:21.377Z,100796.88
2023-03-31T04:51:47.876Z,100800.75
2023-03-31T04:54:14.276Z,100803.97
2023-03-31T04:56:40.815Z,100787.22
2023-03-31T04:59:08.396Z,100781.91
2023-03-31T05:01:36.329Z,100783.09
2023-03-31T05:04:04.497Z,100793.41
2023-03-31T05:06:31.115Z,100793.41
2023-03-31T05:08:57.560Z,100799.75
2023-03-31T05:11:24.036Z,100807.09
2023-03-31T05:13:50.661Z,100803.84
2023-03-31T05:16:17.353Z,100792.91
2023-03-31T05:18:43.956Z,100780.13
2023-03-31T05:21:16.219Z,100787.75
2023-03-31T05:23:43.127Z,100788.66
2023-03-31T05:26:10.118Z,100790.69
2023-03-31T05:28:37.077Z,100783.09
2023-03-31T05:31:07.115Z,100784.88
2023-03-31T05:33:34.103Z,100775.91
2023-03-31T05:36:00.703Z,100767.78
2023-03-31T05:38:31.549Z,100761.59
2023-03-31T05:40:58.302Z,100747.66
2023-03-31T05:43:25.112Z,100743.41
2023-03-31T05:45:51.677Z,100751.00
2023-03-31T05:48:18.107Z,100756.53
2023-03-31T05:50:44.977Z,100731.53
2023-03-31T05:53:11.399Z,100722.78
2023-03-31T05:55:38.468Z,100736.16
2023-03-31T05:58:05.246Z,100748.41
2023-03-31T06:00:32.024Z,100749.06
2023-03-31T06:02:59.261Z,100745.06
2023-03-31T06:05:31.115Z,100745.69
2023-03-31T06:07:57.907Z,100733.47
2023-03-31T06:10:24.506Z,100743.38
2023-03-31T06:12:50.884Z,100744.16
2023-03-31T06:15:17.436Z,100736.03
2023-03-31T06:17:43.953Z,100721.75
2023-03-31T06:20:26.403Z,100721.22
2023-03-31T06:22:54.621Z,100727.91
2023-03-31T06:25:21.615Z,100711.69
2023-03-31T06:27:48.141Z,100708.44
2023-03-31T06:30:14.739Z,100702.78
2023-03-31T06:32:41.232Z,100697.00
2023-03-31T06:35:08.104Z,100701.50
2023-03-31T06:37:34.541Z,100708.59
2023-03-31T06:40:00.962Z,100716.19
2023-03-31T06:42:27.385Z,100713.50
2023-03-31T06:44:55.798Z,100714.41
2023-03-31T06:47:22.348Z,100701.63
2023-03-31T06:49:48.820Z,100707.06
2023-03-31T06:52:15.491Z,100709.88
2023-03-31T06:54:42.479Z,100691.47
2023-03-31T06:57:09.094Z,100689.25
2023-03-31T06:59:35.661Z,100691.59
2023-03-31T07:02:02.255Z,100692.88
2023-03-31T07:04:28.810Z,100682.81
2023-03-31T07:06:55.783Z,100689.78
2023-03-31T07:09:23.468Z,100692.88
2023-03-31T07:11:50.197Z,100687.59
2023-03-31T07:14:16.786Z,100682.44
2023-03-31T07:16:43.411Z,100678.69
2023-03-31T07:19:11.023Z,100681.81
2023-03-31T07:21:37.816Z,100686.72
2023-03-31T07:24:04.476Z,100680.75
2023-03-31T07:26:31.089Z,100676.13
2023-03-31T07:28:57.776Z,100672.66
2023-03-31T07:31:24.333Z,100665.81
2023-03-31T07:33:51.096Z,100667.50
2023-03-31T07:36:17.822Z,100660.66
2023-03-31T07:38:46.971Z,100666.19
2023-03-31T07:41:15.040Z,100659.88
2023-03-31T07:43:41.764Z,100666.59
2023-03-31T07:46:21.520Z,100669.69
2023-03-31T07:48:48.958Z,100665.03
2023-03-31T07:51:17.116Z,100654.97
2023-03-31T07:53:43.626Z,100637.16
2023-03-31T07:56:10.217Z,100628.16
2023-03-31T07:58:36.707Z,100623.13
2023-03-31T08:01:03.472Z,100629.03
2023-03-31T08:03:31.897Z,100627.72
2023-03-31T08:05:58.597Z,100627.06
2023-03-31T08:08:25.391Z,100630.03
2023-03-31T08:10:52.940Z,100615.19
2023-03-31T08:13:19.421Z,100604.88
2023-03-31T08:15:45.894Z,100615.72
2023-03-31T08:18:12.354Z,100630.72
2023-03-31T08:20:39.308Z,100647.69
2023-03-31T08:23:08.970Z,100664.13
2023-03-31T08:25:35.359Z,100658.16
2023-03-31T08:28:01.825Z,100656.13
2023-03-31T08:30:28.266Z,100650.44
2023-03-31T08:32:54.695Z,100657.63
2023-03-31T08:35:21.203Z,100671.81
2023-03-31T08:37:47.678Z,100672.59
2023-03-31T08:40:20.177Z,100663.03
2023-03-31T08:42:51.149Z,100652.31
2023-03-31T08:45:29.851Z,100645.97
2023-03-31T08:48:04.641Z,100644.09
2023-03-31T08:50:36.736Z,100654.44
2023-03-31T08:53:07.550Z,100638.13
2023-03-31T08:55:44.821Z,100616.31
2023-03-31T08:58:32.032Z,100617.78
2023-03-31T09:01:20.500Z,100614.69
2023-03-31T09:04:11.744Z,100628.25
2023-03-31T09:06:51.164Z,100638.06
2023-03-31T09:09:35.385Z,100636.47
2023-03-31T09:12:12.929Z,100631.38
2023-03-31T09:15:01.340Z,100618.38
2023-03-31T09:17:33.734Z,100602.19
2023-03-31T09:20:13.448Z,100589.13
2023-03-31T09:22:44.942Z,100587.34
2023-03-31T09:25:26.471Z,100584.06
2023-03-31T09:27:56.752Z,100577.75
2023-03-31T09:30:30.613Z,100565.75
2023-03-31T09:33:36.573Z,100551.31
2023-03-31T09:36:13.660Z,100525.75
2023-03-31T09:38:42.351Z,100521.28
2023-03-31T09:41:09.636Z,100531.56
2023-03-31T09:43:36.205Z,100528.88
2023-03-31T09:46:09.770Z,100529.41
2023-03-31T09:48:38.931Z,100536.72
2023-03-31T09:51:07.930Z,100541.56
2023-03-31T09:54:00.488Z,100557.63
2023-03-31T09:56:46.214Z,100540.91
2023-03-31T09:59:16.708Z,100536.47
2023-03-31T10:01:45.950Z,100540.88
2023-03-31T10:04:28.993Z,100554.91
2023-03-31T10:06:56.465Z,100553.34
2023-03-31T10:09:28.391Z,100541.88
2023-03-31T10:11:58.007Z,100537.47
2023-03-31T10:14:28.016Z,100535.03
2023-03-31T10:16:56.865Z,100523.56
2023-03-31T10:19:29.009Z,100524.22
2023-03-31T10:22:07.004Z,100514.88
2023-03-31T10:24:42.229Z,100506.03
2023-03-31T10:27:27.611Z,100503.63
2023-03-31T10:29:59.544Z,100504.75
2023-03-31T10:32:29.387Z,100503.81
2023-03-31T10:34:57.852Z,100491.31
2023-03-31T10:37:27.163Z,100479.19
2023-03-31T10:40:21.030Z,100463.97
2023-03-31T10:42:58.280Z,100455.59
2023-03-31T10:45:37.377Z,100453.63
2023-03-31T10:48:16.783Z,100440.06
2023-03-31T10:50:43.243Z,100441.63
2023-03-31T10:53:15.819Z,100435.00
2023-03-31T10:55:59.773Z,100424.72
2023-03-31T10:59:02.470Z,100422.56
2023-03-31T11:01:32.305Z,100414.47
2023-03-31T11:04:01.916Z,100420.84
2023-03-31T11:06:50.337Z,100410.56
2023-03-31T11:09:35.503Z,100400.22
2023-03-31T11:12:15.280Z,100393.31
2023-03-31T11:15:02.510Z,100381.69
2023-03-31T11:17:58.090Z,100362.69
2023-03-31T11:20:56.770Z,100355.59
2023-03-31T11:24:08.618Z,100349.31
2023-03-31T11:27:06.831Z,100350.41
2023-03-31T11:30:00.231Z,100347.44
2023-03-31T11:32:33.165Z,100327.59
2023-03-31T11:35:16.548Z,100330.28
2023-03-31T11:38:02.440Z,100325.19
2023-03-31T11:40:28.925Z,100319.31
2023-03-31T11:43:01.381Z,100316.66
2023-03-31T11:45:34.288Z,100317.31
2023-03-31T11:48:07.899Z,100310.53
2023-03-31T11:50:39.843Z,100301.28
2023-03-31T11:53:14.839Z,100298.41
2023-03-31T11:55:42.147Z,100300.38
2023-03-31T11:58:16.903Z,100291.91
2023-03-31T12:00:53.830Z,100283.25
2023-03-31T12:03:52.624Z,100274.25
2023-03-31T12:06:23.266Z,100269.59
2023-03-31T12:09:05.451Z,100264.72
2023-03-31T12:11:55.474Z,100256.78
2023-03-31T12:14:34.723Z,100249.47
2023-03-31T12:17:09.047Z,100241.38
2023-03-31T12:19:51.561Z,100236.50
2023-03-31T12:22:29.230Z,100215.38
2023-03-31T12:24:56.007Z,100216.84
2023-03-31T12:27:41.639Z,100215.47
2023-03-31T12:30:20.968Z,100214.66
2023-03-31T12:32:56.967Z,100210.03
2023-03-31T12:35:36.891Z,100196.72
2023-03-31T12:38:21.544Z,100189.59
2023-03-31T12:40:58.949Z,100198.34
2023-03-31T12:43:40.586Z,100181.09
2023-03-31T12:46:36.859Z,100174.53
2023-03-31T12:49:23.672Z,100173.88
2023-03-31T12:52:27.943Z,100168.03
2023-03-31T12:55:21.393Z,100164.78
2023-03-31T12:57:47.925Z,100160.09
2023-03-31T13:00:24.452Z,100149.06
2023-03-31T13:03:30.272Z,100132.63
2023-03-31T13:05:56.813Z,100138.63
2023-03-31T13:08:57.046Z,100130.56
2023-03-31T13:11:36.518Z,100128.16
2023-03-31T13:14:11.964Z,100120.38
2023-03-31T13:16:38.505Z,100132.44
2023-03-31T13:19:05.398Z,100134.22
2023-03-31T13:21:39.491Z,100114.56
2023-03-31T13:24:07.100Z,100113.94
2023-03-31T13:26:33.450Z,100111.06
2023-03-31T13:29:14.893Z,100102.22
2023-03-31T13:32:00.666Z,100094.59
2023-03-31T13:34:52.360Z,100087.56
2023-03-31T13:37:45.026Z,100076.81
2023-03-31T13:40:17.553Z,100070.03
2023-03-31T13:43:10.239Z,100066.47
2023-03-31T13:45:54.129Z,100052.78
2023-03-31T13:48:56.275Z,100055.00
2023-03-31T13:51:42.039Z,100048.22
2023-03-31T13:54:33.431Z,100045.63
2023-03-31T13:57:14.253Z,100042.84
2023-03-31T13:59:58.915Z,100032.72
2023-03-31T14:02:31.529Z,100024.06
2023-03-31T14:05:26.661Z,100012.63
2023-03-31T14:07:56.099Z,100015.31
2023-03-31T14:10:35.796Z,100008.94
2023-03-31T14:13:13.409Z,99998.88
2023-03-31T14:15:52.023Z,99995.81
2023-03-31T14:18:26.422Z,99979.19
2023-03-31T14:21:04.149Z,99977.03
2023-03-31T14:24:01.706Z,99975.97
2023-03-31T14:26:34.146Z,99975.44
2023-03-31T14:29:11.271Z,99970.44
2023-03-31T14:31:49.506Z,99956.63
2023-03-31T14:34:32.283Z,99937.50
2023-03-31T14:37:05.734Z,99933.91
2023-03-31T14:39:40.319Z,99938.84
2023-03-31T14:42:13.611Z,99952.19
2023-03-31T14:44:42.728Z,99951.13
2023-03-31T14:47:19.977Z,99958.28
2023-03-31T14:49:46.770Z,99960.78
2023-03-31T14:52:23.603Z,99962.75
2023-03-31T14:54:52.922Z,99959.00
2023-03-31T14:57:24.047Z,99939.41
2023-03-31T14:59:53.335Z,99927.59
2023-03-31T15:02:33.725Z,99914.84
2023-03-31T15:05:07.622Z,99920.81
2023-03-31T15:07:35.098Z,99923.59
2023-03-31T15:10:02.966Z,99926.81
2023-03-31T15:12:30.046Z,99928.25
2023-03-31T15:15:06.191Z,99922.72
2023-03-31T15:17:39.304Z,99931.84
2023-03-31T15:20:40.060Z,99930.13
2023-03-31T15:23:27.343Z,99927.53
2023-03-31T15:26:10.997Z,99924.53
2023-03-31T15:28:53.732Z,99939.34
2023-03-31T15:31:20.507Z,99940.69
2023-03-31T15:33:47.424Z,99935.06
2023-03-31T15:36:14.653Z,99930.41
2023-03-31T15:38:41.327Z,99930.50
2023-03-31T15:41:16.946Z,99930.50
2023-03-31T15:43:50.808Z,99927.91
2023-03-31T15:46:24.250Z,99926.94
2023-03-31T15:48:53.444Z,99921.75
2023-03-31T15:51:32.727Z,99917.19
2023-03-31T15:53:59.219Z,99920.75
2023-03-31T15:56:36.062Z,99918.34
2023-03-31T15:59:21.780Z,99916.66
2023-03-31T16:01:49.955Z,99900.22
2023-03-31T16:04:17.674Z,99891.81
2023-03-31T16:07:08.779Z,99885.84
2023-03-31T16:09:45.752Z,99892.91
2023-03-31T16:12:51.399Z,99888.06
2023-03-31T16:15:24.084Z,99894.13
2023-03-31T16:18:03.178Z,99878.78
2023-03-31T16:20:37.039Z,99882.69
2023-03-31T16:23:13.366Z,99891.81
2023-03-31T16:25:41.724Z,99891.38
2023-03-31T16:28:14.933Z,99896.19
2023-03-31T16:30:43.408Z,99898.88
2023-03-31T16:33:16.137Z,99889.88
2023-03-31T16:35:45.278Z,99887.38
2023-03-31T16:38:12.904Z,99865.66
2023-03-31T16:40:41.523Z,99868.78
2023-03-31T16:43:12.551Z,99856.09
2023-03-31T16:45:39.543Z,99858.69
2023-03-31T16:48:15.649Z,99853.16
2023-03-31T16:50:44.837Z,99859.56
2023-03-31T16:53:12.922Z,99855.75
2023-03-31T16:55:39.449Z,99855.38
2023-03-31T16:58:05.834Z,99855.16
2023-03-31T17:00:37.203Z,99850.69
2023-03-31T17:03:04.865Z,99834.09
2023-03-31T17:05:33.128Z,99836.09
2023-03-31T17:07:59.909Z,99830.19
2023-03-31T17:10:26.694Z,99827.50
2023-03-31T17:12:53.078Z,99839.09
2023-03-31T17:15:20.108Z,99834.47
2023-03-31T17:17:46.635Z,99853.19
2023-03-31T17:20:13.343Z,99849.72
2023-03-31T17:22:40.048Z,99847.13
2023-03-31T17:25:07.974Z,99853.03
2023-03-31T17:27:34.565Z,99853.34
2023-03-31T17:30:01.164Z,99856.09
2023-03-31T17:32:27.697Z,99847.25
2023-03-31T17:34:54.498Z,99842.78
2023-03-31T17:37:21.211Z,99840.91
2023-03-31T17:39:47.675Z,99851.88
2023-03-31T17:42:14.189Z,99850.19
2023-03-31T17:44:40.859Z,99853.69
2023-03-31T17:47:07.421Z,99849.72
2023-03-31T17:49:33.945Z,99859.69
2023-03-31T17:52:00.730Z,99853.22
2023-03-31T17:54:27.218Z,99866.59
2023-03-31T17:56:54.469Z,99867.31
2023-03-31T17:59:21.188Z,99868.81
2023-03-31T18:01:47.840Z,99879.53
2023-03-31T18:04:15.992Z,99869.03
2023-03-31T18:06:44.620Z,99858.41
2023-03-31T18:09:11.768Z,99856.34
2023-03-31T18:11:38.673Z,99857.63
2023-03-31T18:14:05.132Z,99857.41
2023-03-31T18:16:31.928Z,99858.69
2023-03-31T18:18:58.402Z,99857.81
2023-03-31T18:21:24.953Z,99859.81
2023-03-31T18:23:52.596Z,99865.19
2023-03-31T18:26:19.653Z,99872.94
2023-03-31T18:28:46.394Z,99881.34
2023-03-31T18:31:12.876Z,99880.28
2023-03-31T18:33:40.054Z,99888.91
2023-03-31T18:36:07.533Z,99878.69
2023-03-31T18:38:34.433Z,99875.81
2023-03-31T18:41:00.906Z,99881.47
2023-03-31T18:43:27.697Z,99878.09
2023-03-31T18:45:56.361Z,99886.94
2023-03-31T18:48:23.167Z,99878.94
2023-03-31T18:50:51.804Z,99867.94
2023-03-31T18:53:24.197Z,99863.78
2023-03-31T18:55:56.821Z,99866.25
2023-03-31T18:58:24.713Z,99866.50
2023-03-31T19:00:51.830Z,99867.00
2023-03-31T19:03:19.141Z,99866.72
2023-03-31T19:05:45.804Z,99864.66
2023-03-31T19:08:12.539Z,99860.34
2023-03-31T19:10:39.171Z,99856.97
2023-03-31T19:13:05.982Z,99853.06
2023-03-31T19:15:33.133Z,99861.69
2023-03-31T19:17:59.677Z,99867.75
2023-03-31T19:20:26.184Z,99870.25
2023-03-31T19:22:52.571Z,99876.41
2023-03-31T19:25:20.101Z,99876.41
2023-03-31T19:27:47.160Z,99865.28
2023-03-31T19:30:20.095Z,99859.94
2023-03-31T19:32:48.784Z,99859.31
2023-03-31T19:35:16.673Z,99856.97
2023-03-31T19:37:43.485Z,99853.19
2023-03-31T19:40:10.332Z,99863.53
2023-03-31T19:42:36.860Z,99864.97
2023-03-31T19:45:03.395Z,99868.63
2023-03-31T19:47:29.961Z,99864.19
2023-03-31T19:49:56.388Z,99868.47
2023-03-31T19:52:22.816Z,99871.84
2023-03-31T19:54:49.445Z,99866.72
2023-03-31T19:57:16.040Z,99854.41
2023-03-31T19:59:42.463Z,99854.31
2023-03-31T20:02:12.712Z,99842.88
2023-03-31T20:04:41.673Z,99834.47
2023-03-31T20:07:08.801Z,99836.03
2023-03-31T20:09:35.572Z,99847.91
2023-03-31T20:12:02.335Z,99846.69
2023-03-31T20:14:29.381Z,99856.66
2023-03-31T20:16:56.058Z,99859.47
2023-03-31T20:19:23.215Z,99862.59
2023-03-31T20:21:54.177Z,99858.69
2023-03-31T20:24:20.726Z,99857.47
2023-03-31T20:26:47.507Z,99856.47
2023-03-31T20:29:14.149Z,99851.06
2023-03-31T20:31:41.810Z,99847.84
2023-03-31T20:34:13.893Z,99847.16
2023-03-31T20:36:42.396Z,99845.69
2023-03-31T20:39:10.519Z,99839.03
2023-03-31T20:41:37.371Z,99845.41
2023-03-31T20:44:05.817Z,99859.31
2023-03-31T20:46:32.353Z,99856.53
2023-03-31T20:48:59.354Z,99847.00
2023-03-31T20:51:32.449Z,99847.25
2023-03-31T20:54:01.300Z,99840.09
2023-03-31T20:56:39.406Z,99839.66
2023-03-31T20:59:10.960Z,99841.69
2023-03-31T21:01:37.640Z,99837.56
2023-03-31T21:04:06.900Z,99826.22
2023-03-31T21:06:39.382Z,99827.31
2023-03-31T21:09:06.251Z,99817.03
2023-03-31T21:11:33.018Z,99820.66
2023-03-31T21:13:59.888Z,99812.38
2023-03-31T21:16:26.500Z,99810.00
2023-03-31T21:18:54.999Z,99811.56
2023-03-31T21:21:24.298Z,99805.84
2023-03-31T21:23:51.502Z,99803.41
2023-03-31T21:26:18.652Z,99809.66
2023-03-31T21:28:46.002Z,99804.09
2023-03-31T21:31:18.037Z,99792.13
2023-03-31T21:33:46.516Z,99786.28
2023-03-31T21:36:16.373Z,99784.84
2023-03-31T21:38:43.600Z,99792.78
2023-03-31T21:41:19.348Z,99793.88
2023-03-31T21:43:46.555Z,99797.56
2023-03-31T21:46:21.550Z,99792.00
2023-03-31T21:48:49.324Z,99796.72
2023-03-31T21:51:17.752Z,99793.13
2023-03-31T21:53:45.757Z,99794.34
2023-03-31T21:56:12.265Z,99789.16
2023-03-31T21:58:38.652Z,99790.44
2023-03-31T22:01:06.239Z,99785.63
2023-03-31T22:03:34.533Z,99788.75
2023-03-31T22:06:03.029Z,99805.56
2023-03-31T22:08:29.859Z,99812.72
2023-03-31T22:10:58.019Z,99825.59
2023-03-31T22:13:24.994Z,99830.13
2023-03-31T22:15:51.637Z,99836.59
2023-03-31T22:18:18.435Z,99835.97
2023-03-31T22:20:47.157Z,99828.66
2023-03-31T22:23:14.839Z,99820.63
2023-03-31T22:25:41.309Z,99812.91
2023-03-31T22:28:07.851Z,99818.03
2023-03-31T22:30:35.183Z,99820.16
2023-03-31T22:33:01.900Z,99816.59
2023-03-31T22:35:28.789Z,99815.97
2023-03-31T22:37:55.604Z,99809.25
2023-03-31T22:40:23.103Z,99810.81
2023-03-31T22:42:49.486Z,99819.34
2023-03-31T22:45:16.374Z,99823.53
2023-03-31T22:47:42.870Z,99827.78
2023-03-31T22:50:10.973Z,99815.06
2023-03-31T22:52:37.600Z,99809.66
2023-03-31T22:55:04.496Z,99808.00
2023-03-31T22:57:31.041Z,99804.88
2023-03-31T22:59:57.460Z,99801.22
2023-03-31T23:02:23.917Z,99794.63
2023-03-31T23:04:50.371Z,99781.47
2023-03-31T23:07:16.873Z,99787.19
2023-03-31T23:09:43.339Z,99788.31
2023-03-31T23:12:09.760Z,99785.91
2023-03-31T23:14:36.420Z,99781.44
2023-03-31T23:17:02.871Z,99782.75
2023-03-31T23:19:29.294Z,99777.59
2023-03-31T23:21:55.698Z,99774.78
2023-03-31T23:24:22.925Z,99771.00
2023-03-31T23:26:49.327Z,99766.97
2023-03-31T23:29:15.942Z,99772.09
2023-03-31T23:31:42.455Z,99769.94
2023-03-31T23:34:10.117Z,99780.16
2023-03-31T23:36:36.605Z,99779.97
2023-03-31T23:39:03.240Z,99763.22
2023-03-31T23:41:29.899Z,99763.69
2023-03-31T23:43:57.651Z,99767.28
2023-03-31T23:46:25.799Z,99760.47
2023-03-31T23:48:52.376Z,99749.06
2023-03-31T23:51:19.067Z,99746.81
2023-03-31T23:53:45.473Z,99735.28
2023-03-31T23:56:13.338Z,99740.97
2023-03-31T23:58:41.498Z,99743.16
